createdAt,value
2023-05-10T00:00:40.154Z,183.21
2023-05-10T00:01:40.141Z,185.90
2023-05-10T00:02:40.387Z,185.51
2023-05-10T00:03:40.148Z,186.63
2023-05-10T00:04:40.108Z,188.31
2023-05-10T00:05:40.116Z,188.05
2023-05-10T00:06:40.079Z,187.45
2023-05-10T00:07:40.093Z,185.55
2023-05-10T00:08:40.098Z,184.12
2023-05-10T00:09:40.071Z,186.82
2023-05-10T00:10:40.121Z,189.19
2023-05-10T00:11:40.131Z,189.32
2023-05-10T00:12:40.090Z,188.20
2023-05-10T00:13:40.098Z,188.02
2023-05-10T00:14:40.106Z,188.84
2023-05-10T00:15:40.078Z,189.94
2023-05-10T00:16:40.159Z,189.94
2023-05-10T00:17:40.202Z,189.86
2023-05-10T00:18:40.093Z,190.22
2023-05-10T00:19:40.106Z,190.92
2023-05-10T00:20:40.122Z,191.75
2023-05-10T00:21:40.096Z,191.32
2023-05-10T00:22:40.090Z,190.98
2023-05-10T00:23:40.095Z,190.94
2023-05-10T00:24:40.068Z,190.20
2023-05-10T00:25:40.097Z,189.71
2023-05-10T00:26:40.122Z,190.69
2023-05-10T00:27:40.135Z,191.81
2023-05-10T00:28:40.132Z,191.75
2023-05-10T00:29:40.143Z,192.61
2023-05-10T00:30:40.091Z,192.18
2023-05-10T00:31:40.127Z,192.34
2023-05-10T00:32:40.174Z,191.02
2023-05-10T00:33:40.130Z,190.35
2023-05-10T00:34:40.116Z,192.38
2023-05-10T00:35:40.125Z,190.95
2023-05-10T00:36:40.098Z,192.79
2023-05-10T00:37:40.095Z,191.39
2023-05-10T00:38:40.098Z,188.96
2023-05-10T00:39:40.113Z,189.95
2023-05-10T00:40:40.117Z,191.60
2023-05-10T00:41:40.090Z,190.57
2023-05-10T00:42:40.147Z,191.31
2023-05-10T00:43:40.160Z,190.85
2023-05-10T00:44:40.095Z,191.95
2023-05-10T00:45:40.127Z,189.40
2023-05-10T00:46:40.083Z,189.57
2023-05-10T00:47:40.132Z,191.19
2023-05-10T00:48:40.120Z,192.10
2023-05-10T00:49:40.140Z,189.52
2023-05-10T00:50:40.113Z,190.98
2023-05-10T00:51:40.152Z,190.05
2023-05-10T00:52:40.177Z,191.25
2023-05-10T00:53:40.201Z,192.85
2023-05-10T00:54:40.156Z,192.96
2023-05-10T00:55:40.184Z,191.76
2023-05-10T00:56:40.153Z,193.20
2023-05-10T00:57:40.155Z,193.10
2023-05-10T00:58:40.171Z,195.23
2023-05-10T00:59:40.196Z,192.61
2023-05-10T01:00:40.204Z,195.33
2023-05-10T01:01:40.225Z,197.91
2023-05-10T01:02:40.264Z,197.59
2023-05-10T01:03:40.255Z,197.48
2023-05-10T01:04:40.208Z,194.61
2023-05-10T01:05:40.220Z,193.76
2023-05-10T01:06:40.249Z,193.26
2023-05-10T01:07:40.266Z,194.66
2023-05-10T01:08:40.251Z,194.08
2023-05-10T01:09:40.233Z,194.00
2023-05-10T01:10:40.248Z,193.81
2023-05-10T01:11:40.236Z,194.57
2023-05-10T01:12:40.321Z,193.96
2023-05-10T01:13:40.248Z,192.09
2023-05-10T01:14:40.266Z,191.65
2023-05-10T01:15:40.340Z,194.68
2023-05-10T01:16:40.253Z,193.19
2023-05-10T01:17:40.301Z,195.18
2023-05-10T01:18:40.292Z,195.38
2023-05-10T01:19:40.272Z,194.54
2023-05-10T01:20:40.361Z,194.89
2023-05-10T01:21:40.257Z,194.19
2023-05-10T01:22:40.292Z,194.27
2023-05-10T01:23:40.267Z,194.06
2023-05-10T01:24:40.252Z,194.97
2023-05-10T01:25:40.321Z,194.12
2023-05-10T01:26:40.302Z,195.77
2023-05-10T01:27:40.300Z,194.22
2023-05-10T01:28:40.310Z,195.68
2023-05-10T01:29:40.315Z,193.47
2023-05-10T01:30:40.308Z,194.72
2023-05-10T01:31:40.323Z,195.60
2023-05-10T01:32:40.369Z,194.86
2023-05-10T01:33:40.309Z,195.06
2023-05-10T01:34:40.329Z,195.09
2023-05-10T01:35:40.345Z,195.16
2023-05-10T01:36:40.364Z,197.00
2023-05-10T01:37:40.365Z,195.43
2023-05-10T01:38:40.367Z,195.73
2023-05-10T01:39:40.373Z,194.92
2023-05-10T01:40:40.366Z,194.03
2023-05-10T01:41:40.366Z,194.19
2023-05-10T01:42:40.468Z,193.03
2023-05-10T01:43:40.353Z,195.13
2023-05-10T01:44:40.375Z,193.27
2023-05-10T01:45:40.381Z,194.83
2023-05-10T01:46:40.394Z,194.62
2023-05-10T01:47:40.365Z,195.92
2023-05-10T01:48:40.382Z,196.47
2023-05-10T01:49:40.402Z,195.56
2023-05-10T01:50:40.431Z,195.72
2023-05-10T01:51:40.421Z,195.66
2023-05-10T01:52:40.423Z,195.34
2023-05-10T01:53:40.435Z,195.37
2023-05-10T01:54:40.476Z,195.72
2023-05-10T01:55:40.450Z,195.77
2023-05-10T01:56:40.432Z,194.87
2023-05-10T01:57:40.480Z,195.49
2023-05-10T01:58:40.475Z,195.60
2023-05-10T01:59:40.486Z,197.21
2023-05-10T02:00:40.531Z,196.02
2023-05-10T02:01:40.479Z,197.15
2023-05-10T02:02:40.512Z,199.63
2023-05-10T02:03:40.595Z,198.11
2023-05-10T02:04:40.513Z,198.47
2023-05-10T02:05:40.517Z,198.46
2023-05-10T02:06:40.517Z,197.00
2023-05-10T02:07:40.522Z,197.48
2023-05-10T02:08:40.523Z,197.79
2023-05-10T02:09:40.575Z,194.62
2023-05-10T02:10:40.551Z,197.18
2023-05-10T02:11:40.571Z,197.57
2023-05-10T02:12:40.568Z,198.67
2023-05-10T02:13:40.582Z,198.91
2023-05-10T02:14:40.602Z,197.74
2023-05-10T02:15:40.656Z,199.83
2023-05-10T02:16:40.686Z,199.09
2023-05-10T02:17:40.700Z,199.16
2023-05-10T02:18:40.674Z,198.00
2023-05-10T02:19:40.677Z,199.14
2023-05-10T02:20:40.718Z,196.75
2023-05-10T02:21:40.716Z,198.97
2023-05-10T02:22:40.740Z,200.14
2023-05-10T02:23:40.750Z,199.60
2023-05-10T02:24:40.753Z,199.80
2023-05-10T02:25:40.792Z,199.30
2023-05-10T02:26:40.773Z,199.31
2023-05-10T02:27:40.804Z,200.85
2023-05-10T02:28:40.777Z,201.26
2023-05-10T02:29:40.826Z,200.26
2023-05-10T02:30:40.785Z,201.71
2023-05-10T02:31:40.805Z,202.35
2023-05-10T02:32:40.885Z,202.87
2023-05-10T02:33:40.912Z,202.72
2023-05-10T02:34:40.884Z,201.57
2023-05-10T02:35:40.966Z,201.71
2023-05-10T02:36:40.853Z,201.14
2023-05-10T02:37:40.879Z,201.17
2023-05-10T02:38:40.886Z,201.52
2023-05-10T02:39:40.869Z,200.10
2023-05-10T02:40:40.926Z,202.34
2023-05-10T02:41:40.887Z,202.62
2023-05-10T02:42:40.940Z,202.16
2023-05-10T02:43:40.946Z,201.63
2023-05-10T02:44:40.939Z,202.53
2023-05-10T02:45:40.962Z,201.90
2023-05-10T02:46:40.964Z,201.30
2023-05-10T02:47:41.025Z,201.09
2023-05-10T02:48:40.997Z,201.81
2023-05-10T02:49:40.998Z,201.22
2023-05-10T02:50:41.006Z,202.01
2023-05-10T02:51:41.037Z,202.90
2023-05-10T02:52:41.022Z,201.47
2023-05-10T02:53:41.021Z,201.32
2023-05-10T02:54:41.022Z,202.56
2023-05-10T02:55:41.087Z,202.67
2023-05-10T02:56:41.040Z,202.08
2023-05-10T02:57:41.050Z,203.22
2023-05-10T02:58:41.063Z,202.22
2023-05-10T02:59:41.055Z,202.71
2023-05-10T03:00:41.103Z,202.35
2023-05-10T03:01:41.212Z,202.34
2023-05-10T03:02:41.096Z,201.82
2023-05-10T03:03:41.083Z,201.18
2023-05-10T03:04:41.196Z,201.17
2023-05-10T03:05:41.144Z,202.21
2023-05-10T03:06:41.140Z,203.40
2023-05-10T03:07:41.167Z,202.63
2023-05-10T03:08:41.158Z,203.80
2023-05-10T03:09:41.174Z,202.76
2023-05-10T03:10:41.165Z,203.51
2023-05-10T03:11:41.180Z,204.05
2023-05-10T03:12:41.190Z,204.39
2023-05-10T03:13:41.195Z,205.30
2023-05-10T03:14:41.223Z,204.62
2023-05-10T03:15:41.234Z,203.98
2023-05-10T03:16:44.072Z,204.14
2023-05-10T03:17:41.276Z,206.58
2023-05-10T03:18:41.222Z,206.46
2023-05-10T03:19:41.212Z,205.77
2023-05-10T03:20:41.245Z,206.04
2023-05-10T03:21:41.215Z,203.26
2023-05-10T03:22:41.220Z,205.10
2023-05-10T03:23:41.242Z,204.80
2023-05-10T03:24:41.185Z,206.26
2023-05-10T03:25:41.189Z,204.43
2023-05-10T03:26:41.169Z,203.16
2023-05-10T03:27:41.166Z,206.70
2023-05-10T03:28:41.164Z,204.89
2023-05-10T03:29:41.140Z,204.56
2023-05-10T03:30:41.183Z,205.09
2023-05-10T03:31:41.199Z,204.58
2023-05-10T03:32:41.173Z,204.30
2023-05-10T03:33:41.148Z,204.11
2023-05-10T03:34:41.092Z,203.72
2023-05-10T03:35:41.158Z,206.11
2023-05-10T03:36:41.113Z,205.23
2023-05-10T03:37:41.105Z,204.42
2023-05-10T03:38:41.129Z,203.70
2023-05-10T03:39:41.078Z,204.86
2023-05-10T03:40:41.078Z,204.57
2023-05-10T03:41:41.088Z,205.47
2023-05-10T03:42:41.051Z,206.89
2023-05-10T03:43:41.053Z,205.78
2023-05-10T03:44:41.069Z,205.01
2023-05-10T03:45:41.050Z,204.74
2023-05-10T03:46:41.047Z,206.47
2023-05-10T03:47:41.067Z,206.66
2023-05-10T03:48:41.055Z,204.87
2023-05-10T03:49:41.059Z,206.85
2023-05-10T03:50:41.009Z,206.55
2023-05-10T03:51:41.008Z,204.80
2023-05-10T03:52:41.025Z,204.61
2023-05-10T03:53:41.026Z,205.40
2023-05-10T03:54:40.986Z,206.14
2023-05-10T03:55:40.986Z,205.82
2023-05-10T03:56:40.979Z,205.93
2023-05-10T03:57:40.948Z,206.34
2023-05-10T03:58:40.952Z,206.16
2023-05-10T03:59:40.929Z,205.54
2023-05-10T04:00:40.921Z,205.27
2023-05-10T04:01:40.947Z,206.76
2023-05-10T04:02:41.542Z,204.67
2023-05-10T04:03:40.950Z,205.92
2023-05-10T04:04:40.902Z,205.22
2023-05-10T04:05:40.896Z,205.50
2023-05-10T04:06:40.985Z,203.82
2023-05-10T04:07:40.928Z,201.45
2023-05-10T04:08:40.881Z,196.77
2023-05-10T04:09:40.863Z,192.70
2023-05-10T04:10:40.895Z,190.24
2023-05-10T04:11:40.888Z,187.77
2023-05-10T04:12:40.920Z,183.57
2023-05-10T04:13:40.839Z,179.22
2023-05-10T04:14:40.894Z,174.25
2023-05-10T04:15:40.836Z,175.69
2023-05-10T04:16:40.858Z,173.29
2023-05-10T04:17:40.872Z,169.92
2023-05-10T04:18:40.838Z,165.80
2023-05-10T04:19:40.841Z,162.63
2023-05-10T04:20:40.817Z,164.19
2023-05-10T04:21:40.797Z,164.21
2023-05-10T04:22:40.757Z,158.54
2023-05-10T04:23:40.816Z,158.35
2023-05-10T04:24:40.763Z,155.39
2023-05-10T04:25:40.788Z,155.94
2023-05-10T04:26:40.787Z,154.67
2023-05-10T04:27:40.806Z,151.05
2023-05-10T04:28:40.733Z,148.69
2023-05-10T04:29:40.767Z,146.08
2023-05-10T04:30:40.791Z,145.50
2023-05-10T04:31:40.755Z,142.73
2023-05-10T04:32:40.764Z,141.92
2023-05-10T04:33:40.734Z,143.16
2023-05-10T04:34:40.979Z,144.29
2023-05-10T04:35:40.707Z,143.98
2023-05-10T04:36:40.702Z,142.44
2023-05-10T04:37:40.703Z,143.78
2023-05-10T04:38:40.675Z,142.42
2023-05-10T04:39:42.329Z,143.43
2023-05-10T04:40:40.642Z,143.41
2023-05-10T04:41:40.685Z,142.33
2023-05-10T04:42:40.647Z,142.35
2023-05-10T04:43:40.634Z,142.65
2023-05-10T04:44:40.651Z,143.88
2023-05-10T04:45:40.653Z,143.08
2023-05-10T04:46:40.742Z,143.44
2023-05-10T04:47:40.680Z,144.97
2023-05-10T04:48:40.626Z,143.98
2023-05-10T04:49:40.669Z,143.56
2023-05-10T04:50:40.592Z,143.94
2023-05-10T04:51:40.598Z,144.98
2023-05-10T04:52:40.607Z,145.86
2023-05-10T04:53:41.830Z,145.24
2023-05-10T04:54:40.580Z,146.40
2023-05-10T04:55:40.581Z,145.60
2023-05-10T04:56:40.603Z,146.89
2023-05-10T04:57:40.636Z,145.66
2023-05-10T04:58:40.698Z,144.46
2023-05-10T04:59:40.654Z,145.72
2023-05-10T05:00:40.715Z,143.29
2023-05-10T05:01:40.757Z,140.85
2023-05-10T05:02:40.814Z,133.23
2023-05-10T05:03:40.929Z,129.63
2023-05-10T05:04:40.843Z,125.74
2023-05-10T05:05:40.855Z,126.33
2023-05-10T05:06:40.862Z,123.39
2023-05-10T05:07:40.883Z,123.80
2023-05-10T05:08:40.914Z,123.51
2023-05-10T05:09:40.930Z,125.14
2023-05-10T05:10:40.996Z,123.35
2023-05-10T05:11:40.998Z,123.48
2023-05-10T05:12:40.985Z,123.47
2023-05-10T05:13:41.008Z,121.44
2023-05-10T05:14:41.036Z,122.90
2023-05-10T05:15:41.108Z,122.73
2023-05-10T05:16:41.299Z,120.25
2023-05-10T05:17:41.180Z,121.55
2023-05-10T05:18:41.189Z,119.78
2023-05-10T05:19:41.206Z,118.99
2023-05-10T05:20:41.219Z,118.45
2023-05-10T05:21:41.223Z,121.64
2023-05-10T05:22:41.250Z,119.95
2023-05-10T05:23:41.299Z,120.88
2023-05-10T05:24:41.334Z,119.59
2023-05-10T05:25:41.346Z,118.09
2023-05-10T05:26:41.344Z,118.08
2023-05-10T05:27:41.359Z,115.42
2023-05-10T05:28:41.367Z,115.44
2023-05-10T05:29:41.369Z,112.81
2023-05-10T05:30:41.444Z,111.55
2023-05-10T05:31:41.555Z,109.67
2023-05-10T05:32:41.534Z,110.80
2023-05-10T05:33:41.506Z,110.73
2023-05-10T05:34:41.573Z,121.61
2023-05-10T05:35:41.608Z,117.36
2023-05-10T05:36:41.629Z,118.90
2023-05-10T05:37:41.690Z,118.86
2023-05-10T05:38:41.788Z,116.89
2023-05-10T05:39:41.807Z,125.61
2023-05-10T05:40:41.866Z,127.30
2023-05-10T05:41:42.127Z,129.51
2023-05-10T05:42:41.913Z,127.76
2023-05-10T05:43:41.996Z,126.16
2023-05-10T05:44:42.041Z,121.67
2023-05-10T05:45:42.067Z,118.22
2023-05-10T05:46:42.095Z,125.21
2023-05-10T05:47:42.173Z,131.16
2023-05-10T05:48:42.623Z,136.89
2023-05-10T05:49:42.639Z,142.03
2023-05-10T05:50:42.619Z,147.98
2023-05-10T05:51:42.244Z,153.54
2023-05-10T05:52:42.258Z,162.75
2023-05-10T05:53:42.608Z,167.44
2023-05-10T05:54:42.270Z,170.41
2023-05-10T05:55:42.272Z,171.77
2023-05-10T05:56:42.602Z,176.37
2023-05-10T05:57:42.282Z,183.35
2023-05-10T05:58:42.290Z,189.55
2023-05-10T05:59:42.300Z,196.77
2023-05-10T06:00:42.308Z,196.67
2023-05-10T06:01:42.688Z,201.78
2023-05-10T06:02:42.430Z,203.71
2023-05-10T06:03:42.515Z,202.98
2023-05-10T06:04:44.639Z,203.26
2023-05-10T06:05:42.527Z,207.20
2023-05-10T06:06:42.613Z,207.40
2023-05-10T06:07:42.449Z,215.28
2023-05-10T06:08:42.481Z,213.69
2023-05-10T06:09:42.607Z,214.47
2023-05-10T06:10:42.516Z,224.91
2023-05-10T06:11:42.662Z,227.28
2023-05-10T06:12:42.507Z,229.45
2023-05-10T06:13:42.512Z,227.00
2023-05-10T06:14:42.506Z,234.68
2023-05-10T06:15:42.535Z,236.19
2023-05-10T06:16:42.580Z,238.04
2023-05-10T06:17:42.636Z,241.66
2023-05-10T06:18:42.554Z,250.00
2023-05-10T06:19:42.544Z,248.34
2023-05-10T06:20:42.558Z,248.23
2023-05-10T06:21:42.529Z,248.35
2023-05-10T06:22:42.521Z,243.21
2023-05-10T06:23:42.530Z,250.00
2023-05-10T06:24:42.572Z,249.38
2023-05-10T06:25:42.588Z,249.23
2023-05-10T06:26:42.635Z,250.00
2023-05-10T06:27:43.097Z,247.25
2023-05-10T06:28:42.695Z,246.78
2023-05-10T06:29:42.756Z,244.44
2023-05-10T06:30:42.745Z,249.66
2023-05-10T06:31:42.824Z,250.00
2023-05-10T06:32:42.888Z,248.77
2023-05-10T06:33:42.849Z,250.70
2023-05-10T06:34:42.869Z,245.88
2023-05-10T06:35:42.963Z,249.35
2023-05-10T06:36:42.962Z,249.68
2023-05-10T06:37:42.977Z,245.22
2023-05-10T06:38:43.127Z,240.94
2023-05-10T06:39:42.976Z,239.55
2023-05-10T06:40:42.979Z,215.10
2023-05-10T06:41:43.016Z,202.87
2023-05-10T06:42:43.077Z,202.16
2023-05-10T06:43:43.036Z,187.34
2023-05-10T06:44:43.093Z,181.39
2023-05-10T06:45:43.593Z,174.71
2023-05-10T06:46:43.170Z,166.86
2023-05-10T06:47:43.097Z,164.81
2023-05-10T06:48:43.618Z,157.21
2023-05-10T06:49:43.677Z,149.74
2023-05-10T06:50:43.670Z,152.83
2023-05-10T06:51:43.645Z,159.41
2023-05-10T06:52:44.087Z,163.33
2023-05-10T06:53:43.212Z,169.66
2023-05-10T06:54:43.621Z,171.54
2023-05-10T06:55:43.641Z,169.08
2023-05-10T06:56:43.309Z,172.15
2023-05-10T06:57:43.634Z,178.31
2023-05-10T06:58:43.361Z,186.44
2023-05-10T06:59:43.355Z,182.64
2023-05-10T07:00:43.369Z,182.69
2023-05-10T07:01:43.399Z,185.36
2023-05-10T07:02:43.350Z,188.24
2023-05-10T07:03:43.628Z,193.66
2023-05-10T07:04:43.757Z,198.54
2023-05-10T07:05:43.673Z,197.79
2023-05-10T07:06:43.614Z,196.49
2023-05-10T07:07:43.437Z,184.89
2023-05-10T07:08:43.391Z,179.34
2023-05-10T07:09:43.418Z,180.67
2023-05-10T07:10:43.675Z,179.72
2023-05-10T07:11:43.436Z,176.80
2023-05-10T07:12:43.582Z,177.35
2023-05-10T07:13:43.580Z,182.05
2023-05-10T07:14:43.580Z,185.56
2023-05-10T07:15:43.646Z,185.89
2023-05-10T07:16:43.663Z,187.46
2023-05-10T07:17:45.820Z,188.90
2023-05-10T07:18:44.624Z,188.57
2023-05-10T07:19:44.143Z,194.73
2023-05-10T07:20:43.879Z,192.17
2023-05-10T07:21:43.960Z,192.65
2023-05-10T07:22:43.991Z,201.54
2023-05-10T07:23:45.253Z,204.05
2023-05-10T07:24:44.071Z,207.37
2023-05-10T07:25:44.150Z,200.39
2023-05-10T07:26:44.228Z,192.52
2023-05-10T07:27:44.289Z,196.84
2023-05-10T07:28:44.653Z,190.79
2023-05-10T07:29:44.348Z,191.34
2023-05-10T07:30:44.372Z,173.13
2023-05-10T07:31:44.381Z,163.56
2023-05-10T07:32:44.444Z,177.44
2023-05-10T07:33:44.339Z,160.80
2023-05-10T07:34:44.377Z,148.68
2023-05-10T07:35:44.627Z,149.50
2023-05-10T07:36:44.443Z,166.26
2023-05-10T07:37:45.150Z,183.08
2023-05-10T07:38:44.482Z,193.05
2023-05-10T07:39:44.654Z,192.80
2023-05-10T07:40:44.644Z,192.05
2023-05-10T07:41:44.489Z,193.90
2023-05-10T07:42:44.532Z,181.68
2023-05-10T07:43:44.549Z,181.43
2023-05-10T07:44:44.587Z,179.93
2023-05-10T07:45:45.246Z,177.34
2023-05-10T07:46:44.609Z,173.46
2023-05-10T07:47:45.194Z,172.91
2023-05-10T07:48:44.656Z,176.27
2023-05-10T07:49:44.700Z,176.59
2023-05-10T07:50:44.614Z,178.07
2023-05-10T07:51:44.711Z,174.88
2023-05-10T07:52:45.623Z,173.80
2023-05-10T07:53:44.656Z,166.35
2023-05-10T07:54:44.693Z,172.38
2023-05-10T07:55:44.761Z,178.76
2023-05-10T07:56:44.662Z,183.59
2023-05-10T07:57:44.741Z,187.52
2023-05-10T07:58:44.711Z,192.00
2023-05-10T07:59:44.688Z,192.08
2023-05-10T08:00:44.694Z,194.03
2023-05-10T08:01:44.716Z,195.41
2023-05-10T08:02:46.218Z,193.83
2023-05-10T08:03:44.819Z,199.83
2023-05-10T08:04:44.875Z,204.48
2023-05-10T08:05:45.001Z,206.11
2023-05-10T08:06:44.824Z,203.93
2023-05-10T08:07:44.736Z,207.40
2023-05-10T08:08:44.772Z,211.27
2023-05-10T08:09:44.798Z,211.71
2023-05-10T08:10:44.821Z,216.76
2023-05-10T08:11:45.165Z,216.67
2023-05-10T08:12:45.009Z,219.12
2023-05-10T08:13:45.176Z,215.12
2023-05-10T08:14:45.082Z,219.56
2023-05-10T08:15:45.200Z,219.65
2023-05-10T08:16:45.196Z,220.97
2023-05-10T08:17:45.284Z,220.02
2023-05-10T08:18:45.748Z,223.34
2023-05-10T08:19:45.372Z,218.45
2023-05-10T08:20:45.439Z,213.64
2023-05-10T08:21:45.521Z,196.87
2023-05-10T08:22:45.533Z,172.03
2023-05-10T08:23:45.555Z,167.81
2023-05-10T08:24:45.551Z,153.46
2023-05-10T08:25:45.528Z,127.98
2023-05-10T08:26:45.560Z,132.10
2023-05-10T08:27:45.568Z,126.19
2023-05-10T08:28:45.674Z,126.58
2023-05-10T08:29:50.141Z,133.61
2023-05-10T08:30:45.645Z,133.71
2023-05-10T08:31:45.672Z,112.08
2023-05-10T08:32:46.253Z,106.22
2023-05-10T08:33:45.603Z,119.52
2023-05-10T08:34:45.583Z,119.70
2023-05-10T08:35:45.621Z,112.42
2023-05-10T08:36:45.624Z,115.75
2023-05-10T08:37:45.571Z,103.59
2023-05-10T08:38:45.576Z,97.75
2023-05-10T08:39:45.678Z,91.83
2023-05-10T08:40:45.630Z,89.23
2023-05-10T08:41:45.700Z,125.47
2023-05-10T08:42:45.760Z,144.55
2023-05-10T08:43:45.811Z,150.64
2023-05-10T08:44:48.230Z,158.56
2023-05-10T08:45:45.846Z,169.70
2023-05-10T08:46:45.835Z,171.75
2023-05-10T08:47:45.892Z,176.54
2023-05-10T08:48:45.951Z,178.24
2023-05-10T08:49:45.810Z,176.11
2023-05-10T08:50:45.818Z,181.23
2023-05-10T08:51:45.804Z,192.21
2023-05-10T08:52:45.790Z,189.33
2023-05-10T08:53:45.919Z,191.22
2023-05-10T08:54:45.814Z,192.82
2023-05-10T08:55:45.786Z,191.75
2023-05-10T08:56:46.885Z,194.92
2023-05-10T08:57:46.175Z,195.42
2023-05-10T08:58:46.191Z,197.56
2023-05-10T08:59:45.725Z,202.70
2023-05-10T09:00:45.853Z,207.64
2023-05-10T09:01:45.833Z,214.49
2023-05-10T09:02:45.881Z,211.51
2023-05-10T09:03:45.963Z,213.04
2023-05-10T09:04:46.101Z,213.06
2023-05-10T09:05:46.052Z,210.02
2023-05-10T09:06:46.093Z,216.32
2023-05-10T09:07:46.187Z,218.66
2023-05-10T09:08:46.255Z,218.48
2023-05-10T09:09:46.264Z,222.32
2023-05-10T09:10:46.370Z,223.26
2023-05-10T09:11:46.388Z,221.39
2023-05-10T09:12:46.492Z,219.34
2023-05-10T09:13:46.493Z,227.32
2023-05-10T09:14:47.245Z,226.32
2023-05-10T09:15:46.601Z,229.27
2023-05-10T09:16:46.734Z,226.49
2023-05-10T09:17:46.769Z,234.35
2023-05-10T09:18:46.932Z,233.77
2023-05-10T09:19:46.876Z,233.10
2023-05-10T09:20:46.850Z,234.02
2023-05-10T09:21:47.219Z,241.86
2023-05-10T09:22:46.897Z,239.52
2023-05-10T09:23:48.217Z,235.21
2023-05-10T09:24:46.975Z,240.76
2023-05-10T09:25:47.009Z,236.81
2023-05-10T09:26:47.203Z,234.98
2023-05-10T09:27:47.208Z,234.50
2023-05-10T09:28:47.734Z,237.05
2023-05-10T09:29:47.298Z,240.22
2023-05-10T09:30:47.398Z,240.20
2023-05-10T09:31:47.385Z,241.47
2023-05-10T09:32:47.477Z,240.21
2023-05-10T09:33:47.816Z,238.01
2023-05-10T09:34:47.521Z,240.26
2023-05-10T09:35:47.610Z,249.39
2023-05-10T09:36:47.590Z,245.86
2023-05-10T09:37:47.637Z,241.33
2023-05-10T09:38:48.212Z,246.28
2023-05-10T09:39:47.729Z,240.39
2023-05-10T09:40:47.770Z,239.61
2023-05-10T09:41:47.850Z,241.93
2023-05-10T09:42:47.841Z,244.83
2023-05-10T09:43:48.855Z,246.76
2023-05-10T09:44:47.905Z,248.93
2023-05-10T09:45:47.893Z,250.00
2023-05-10T09:46:47.854Z,248.28
2023-05-10T09:47:47.931Z,248.52
2023-05-10T09:48:47.920Z,245.62
2023-05-10T09:49:47.877Z,246.34
2023-05-10T09:50:48.217Z,246.11
2023-05-10T09:51:47.934Z,250.00
2023-05-10T09:52:47.942Z,249.30
2023-05-10T09:53:47.940Z,247.36
2023-05-10T09:54:48.002Z,239.62
2023-05-10T09:55:48.038Z,241.70
2023-05-10T09:56:48.046Z,232.13
2023-05-10T09:57:48.246Z,228.52
2023-05-10T09:58:48.075Z,230.41
2023-05-10T09:59:48.160Z,211.09
2023-05-10T10:00:48.164Z,196.67
2023-05-10T10:01:48.236Z,196.28
2023-05-10T10:02:48.760Z,181.98
2023-05-10T10:03:48.309Z,187.35
2023-05-10T10:04:48.389Z,177.15
2023-05-10T10:05:48.404Z,170.65
2023-05-10T10:06:48.361Z,154.49
2023-05-10T10:07:48.414Z,149.74
2023-05-10T10:08:48.837Z,144.90
2023-05-10T10:09:48.405Z,132.69
2023-05-10T10:10:48.392Z,125.07
2023-05-10T10:11:48.411Z,122.94
2023-05-10T10:12:48.391Z,122.32
2023-05-10T10:13:48.380Z,129.23
2023-05-10T10:14:48.391Z,128.89
2023-05-10T10:15:48.417Z,125.13
2023-05-10T10:16:59.842Z,119.47
2023-05-10T10:17:49.417Z,119.48
2023-05-10T10:18:48.780Z,118.26
2023-05-10T10:19:49.220Z,106.67
2023-05-10T10:20:48.398Z,97.23
2023-05-10T10:21:48.352Z,94.35
2023-05-10T10:22:48.723Z,94.09
2023-05-10T10:23:48.385Z,94.64
2023-05-10T10:24:48.364Z,95.80
2023-05-10T10:25:48.377Z,91.18
2023-05-10T10:26:48.753Z,72.39
2023-05-10T10:27:48.347Z,72.51
2023-05-10T10:28:48.369Z,65.63
2023-05-10T10:29:48.402Z,74.62
2023-05-10T10:30:48.381Z,46.60
2023-05-10T10:31:48.437Z,39.30
2023-05-10T10:32:48.398Z,54.59
2023-05-10T10:33:48.456Z,47.23
2023-05-10T10:34:48.324Z,73.32
2023-05-10T10:35:48.300Z,82.52
2023-05-10T10:36:48.316Z,83.30
2023-05-10T10:37:48.252Z,85.66
2023-05-10T10:38:48.299Z,84.14
2023-05-10T10:39:48.279Z,75.48
2023-05-10T10:40:48.763Z,77.19
2023-05-10T10:41:48.289Z,90.24
2023-05-10T10:42:48.749Z,94.57
2023-05-10T10:43:48.301Z,84.39
2023-05-10T10:44:48.793Z,95.65
2023-05-10T10:45:48.304Z,104.25
2023-05-10T10:46:48.413Z,116.91
2023-05-10T10:47:48.372Z,103.64
2023-05-10T10:48:48.326Z,108.13
2023-05-10T10:49:48.753Z,109.39
2023-05-10T10:50:48.444Z,107.68
2023-05-10T10:51:48.455Z,117.69
2023-05-10T10:52:48.533Z,123.05
2023-05-10T10:53:48.686Z,118.85
2023-05-10T10:54:48.680Z,122.58
2023-05-10T10:55:48.748Z,142.38
2023-05-10T10:56:48.776Z,145.72
2023-05-10T10:57:48.813Z,148.77
2023-05-10T10:58:48.886Z,156.94
2023-05-10T10:59:48.924Z,153.55
2023-05-10T11:00:49.047Z,156.93
2023-05-10T11:01:49.037Z,155.63
2023-05-10T11:02:49.153Z,165.29
2023-05-10T11:03:49.245Z,151.99
2023-05-10T11:04:49.283Z,159.09
2023-05-10T11:05:49.246Z,158.31
2023-05-10T11:06:49.295Z,154.53
2023-05-10T11:07:49.346Z,158.34
2023-05-10T11:08:49.438Z,154.96
2023-05-10T11:09:49.449Z,149.36
2023-05-10T11:10:49.512Z,143.45
2023-05-10T11:11:49.602Z,148.21
2023-05-10T11:12:49.613Z,145.42
2023-05-10T11:13:51.451Z,146.28
2023-05-10T11:14:49.735Z,142.55
2023-05-10T11:15:49.746Z,144.43
2023-05-10T11:16:50.382Z,146.29
2023-05-10T11:17:49.904Z,113.69
2023-05-10T11:18:50.387Z,65.68
2023-05-10T11:19:49.986Z,54.42
2023-05-10T11:20:49.957Z,27.61
2023-05-10T11:21:49.977Z,26.28
2023-05-10T11:22:50.102Z,54.03
2023-05-10T11:23:50.019Z,36.04
2023-05-10T11:24:50.232Z,36.61
2023-05-10T11:25:50.034Z,29.96
2023-05-10T11:26:50.073Z,34.57
2023-05-10T11:27:50.194Z,30.11
2023-05-10T11:28:50.119Z,12.19
2023-05-10T11:29:50.150Z,9.30
2023-05-10T11:30:50.194Z,14.85
2023-05-10T11:31:50.174Z,20.05
2023-05-10T11:32:50.278Z,25.09
2023-05-10T11:33:50.342Z,25.00
2023-05-10T11:34:50.398Z,30.12
2023-05-10T11:35:50.424Z,27.21
2023-05-10T11:36:50.478Z,33.72
2023-05-10T11:37:50.434Z,35.98
2023-05-10T11:38:50.498Z,35.59
2023-05-10T11:39:50.493Z,33.74
2023-05-10T11:40:50.502Z,37.37
2023-05-10T11:41:50.523Z,14.00
2023-05-10T11:42:50.507Z,26.04
2023-05-10T11:43:50.517Z,24.70
2023-05-10T11:44:50.504Z,25.17
2023-05-10T11:45:50.540Z,29.09
2023-05-10T11:46:50.642Z,35.17
2023-05-10T11:47:50.576Z,23.39
2023-05-10T11:48:50.570Z,24.05
2023-05-10T11:49:50.622Z,27.70
2023-05-10T11:50:50.611Z,24.63
2023-05-10T11:51:50.605Z,29.75
2023-05-10T11:52:50.825Z,30.82
2023-05-10T11:53:50.687Z,33.36
2023-05-10T11:54:50.751Z,31.34
2023-05-10T11:55:50.693Z,38.82
2023-05-10T11:56:50.694Z,30.79
2023-05-10T11:57:50.765Z,26.87
2023-05-10T11:58:50.763Z,22.47
2023-05-10T11:59:50.784Z,25.95
2023-05-10T12:00:50.768Z,31.11
2023-05-10T12:01:50.841Z,31.77
2023-05-10T12:02:50.930Z,26.52
2023-05-10T12:03:51.039Z,51.88
2023-05-10T12:04:50.915Z,71.57
2023-05-10T12:05:50.913Z,82.25
2023-05-10T12:06:50.903Z,96.57
2023-05-10T12:07:50.908Z,104.23
2023-05-10T12:08:50.917Z,116.36
2023-05-10T12:09:50.921Z,119.81
2023-05-10T12:10:50.943Z,125.01
2023-05-10T12:11:51.329Z,125.47
2023-05-10T12:12:51.065Z,132.37
2023-05-10T12:13:51.091Z,138.25
2023-05-10T12:14:51.118Z,146.58
2023-05-10T12:15:51.185Z,146.50
2023-05-10T12:16:51.279Z,146.97
2023-05-10T12:17:51.221Z,150.17
2023-05-10T12:18:51.241Z,149.21
2023-05-10T12:19:51.310Z,154.56
2023-05-10T12:20:51.373Z,160.81
2023-05-10T12:21:51.391Z,161.70
2023-05-10T12:22:51.434Z,161.90
2023-05-10T12:23:51.497Z,158.89
2023-05-10T12:24:51.507Z,156.80
2023-05-10T12:25:51.566Z,156.13
2023-05-10T12:26:51.617Z,155.72
2023-05-10T12:27:51.679Z,160.08
2023-05-10T12:28:51.754Z,166.42
2023-05-10T12:29:51.850Z,166.99
2023-05-10T12:30:51.851Z,165.84